createdAt,value
2019-02-03T00:02:23.017Z,4.40
2019-02-03T00:04:52.652Z,4.30
2019-02-03T00:07:22.614Z,4.30
2019-02-03T00:09:52.242Z,4.20
2019-02-03T00:12:21.972Z,4.30
2019-02-03T00:14:51.539Z,4.40
2019-02-03T00:17:21.409Z,4.30
2019-02-03T00:19:51.018Z,4.30
2019-02-03T00:22:20.756Z,4.30
2019-02-03T00:24:50.353Z,4.20
2019-02-03T00:27:20.070Z,4.10
2019-02-03T00:29:49.579Z,4.10
2019-02-03T00:32:19.266Z,4.20
2019-02-03T00:34:48.834Z,4.20
2019-02-03T00:37:18.569Z,4.30
2019-02-03T00:39:48.368Z,4.40
2019-02-03T00:42:17.915Z,4.40
2019-02-03T00:44:47.566Z,4.40
2019-02-03T00:47:17.112Z,4.40
2019-02-03T00:49:46.782Z,4.50
2019-02-03T00:52:17.613Z,4.60
2019-02-03T00:54:48.234Z,4.50
2019-02-03T00:57:18.809Z,4.60
2019-02-03T00:59:48.458Z,4.50
2019-02-03T01:02:19.005Z,4.60
2019-02-03T01:04:48.881Z,4.60
2019-02-03T01:07:27.270Z,4.60
2019-02-03T01:09:50.728Z,4.60
2019-02-03T01:12:20.400Z,4.50
2019-02-03T01:14:49.944Z,4.50
2019-02-03T01:17:20.088Z,4.40
2019-02-03T01:19:49.611Z,4.30
2019-02-03T01:22:20.305Z,4.30
2019-02-03T01:24:49.842Z,4.20
2019-02-03T01:27:19.485Z,4.20
2019-02-03T01:29:49.053Z,4.20
2019-02-03T01:32:18.967Z,4.10
2019-02-03T01:34:48.578Z,3.80
2019-02-03T01:37:18.109Z,3.90
2019-02-03T01:39:47.784Z,4.00
2019-02-03T01:42:17.444Z,4.10
2019-02-03T01:44:47.270Z,4.20
2019-02-03T01:47:16.809Z,4.10
2019-02-03T01:49:46.436Z,4.10
2019-02-03T01:52:15.955Z,4.00
2019-02-03T01:54:45.618Z,3.90
2019-02-03T01:57:15.604Z,3.80
2019-02-03T01:59:45.227Z,3.90
2019-02-03T02:02:14.828Z,3.90
2019-02-03T02:04:46.396Z,3.90
2019-02-03T02:07:16.031Z,3.90
2019-02-03T02:09:45.712Z,3.90
2019-02-03T02:12:19.397Z,3.90
2019-02-03T02:14:49.351Z,3.70
2019-02-03T02:17:19.130Z,3.70
2019-02-03T02:19:51.053Z,3.80
2019-02-03T02:22:24.052Z,3.90
2019-02-03T02:24:56.791Z,3.90
2019-02-03T02:27:29.471Z,3.90
2019-02-03T02:30:03.347Z,4.00
2019-02-03T02:32:36.100Z,4.00
2019-02-03T02:35:10.335Z,4.00
2019-02-03T02:37:48.859Z,4.10
2019-02-03T02:40:26.165Z,4.00
2019-02-03T02:43:01.319Z,4.10
2019-02-03T02:45:34.441Z,4.10
2019-02-03T02:48:11.596Z,4.20
2019-02-03T02:50:46.431Z,4.30
2019-02-03T02:53:18.584Z,4.30
2019-02-03T02:55:51.189Z,4.30
2019-02-03T02:58:24.695Z,4.30
2019-02-03T03:00:57.196Z,4.20
2019-02-03T03:03:30.832Z,4.20
2019-02-03T03:17:39.914Z,4.30
2019-02-03T03:20:10.731Z,4.20
2019-02-03T03:22:40.287Z,4.30
2019-02-03T03:25:11.597Z,4.30
2019-02-03T03:27:41.210Z,4.20
2019-02-03T03:30:23.793Z,4.10
2019-02-03T03:32:53.676Z,4.10
2019-02-03T03:35:23.609Z,4.10
2019-02-03T03:37:54.224Z,4.10
2019-02-03T03:40:25.745Z,4.10
2019-02-03T03:42:55.789Z,4.00
2019-02-03T03:45:25.806Z,4.00
2019-02-03T03:47:55.548Z,4.00
2019-02-03T03:50:25.187Z,4.00
2019-02-03T03:52:54.793Z,3.90
2019-02-03T03:55:24.731Z,3.90
2019-02-03T03:57:54.361Z,4.00
2019-02-03T04:00:25.305Z,4.00
2019-02-03T04:02:54.982Z,4.00
2019-02-03T04:05:25.828Z,4.00
2019-02-03T04:07:55.454Z,3.90
2019-02-03T04:10:25.895Z,3.90
2019-02-03T04:12:56.730Z,3.90
2019-02-03T04:15:28.064Z,3.90
2019-02-03T04:17:57.663Z,3.90
2019-02-03T04:20:28.937Z,3.90
2019-02-03T04:22:58.695Z,3.80
2019-02-03T04:25:28.268Z,3.70
2019-02-03T04:27:58.292Z,3.70
2019-02-03T04:30:28.074Z,3.60
2019-02-03T04:32:58.028Z,3.60
2019-02-03T04:35:28.603Z,3.50
2019-02-03T04:37:58.293Z,3.50
2019-02-03T04:40:28.681Z,3.60
2019-02-03T04:42:58.362Z,3.50
2019-02-03T04:45:27.958Z,3.40
2019-02-03T04:47:57.727Z,3.40
2019-02-03T04:50:27.402Z,3.40
2019-02-03T04:52:57.229Z,3.40
2019-02-03T04:55:26.878Z,3.40
2019-02-03T04:57:56.572Z,3.40
2019-02-03T05:00:26.323Z,3.40
2019-02-03T05:02:55.923Z,3.60
2019-02-03T05:05:26.153Z,3.50
2019-02-03T05:07:56.068Z,3.60
2019-02-03T05:10:25.801Z,3.50
2019-02-03T05:12:55.429Z,3.50
2019-02-03T05:15:25.334Z,3.60
2019-02-03T05:17:55.338Z,3.50
2019-02-03T05:20:29.067Z,3.50
2019-02-03T05:22:58.608Z,3.50
2019-02-03T05:25:29.111Z,3.50
2019-02-03T05:27:58.746Z,3.50
2019-02-03T05:30:30.471Z,3.40
2019-02-03T05:33:00.337Z,3.30
2019-02-03T05:35:29.960Z,3.30
2019-02-03T05:37:59.596Z,3.20
2019-02-03T05:40:30.155Z,3.20
2019-02-03T05:42:59.832Z,3.10
2019-02-03T05:45:30.436Z,3.00
2019-02-03T05:48:00.100Z,2.90
2019-02-03T05:50:30.648Z,2.90
2019-02-03T05:53:00.315Z,2.80
2019-02-03T05:55:30.045Z,2.80
2019-02-03T05:57:59.784Z,2.80
2019-02-03T06:00:38.059Z,2.80
2019-02-03T06:03:08.170Z,2.80
2019-02-03T06:05:37.857Z,2.60
2019-02-03T06:08:08.737Z,2.80
2019-02-03T06:10:39.304Z,2.80
2019-02-03T06:13:08.999Z,2.80
2019-02-03T06:15:38.636Z,2.80
2019-02-03T06:18:08.405Z,2.80
2019-02-03T06:20:39.099Z,2.90
2019-02-03T06:23:08.793Z,2.90
2019-02-03T06:25:39.455Z,2.90
2019-02-03T06:28:10.038Z,2.80
2019-02-03T06:31:19.062Z,2.70
2019-02-03T06:33:52.749Z,2.60
2019-02-03T06:36:23.004Z,2.60
2019-02-03T06:38:53.549Z,2.50
2019-02-03T06:41:23.105Z,2.50
2019-02-03T06:43:52.836Z,2.50
2019-02-03T06:46:34.823Z,2.50
2019-02-03T06:49:07.533Z,2.50
2019-02-03T06:51:37.126Z,2.50
2019-02-03T06:54:06.916Z,2.50
2019-02-03T06:56:36.626Z,2.60
2019-02-03T06:59:06.361Z,2.60
2019-02-03T07:01:36.052Z,2.60
2019-02-03T07:04:06.540Z,2.70
2019-02-03T07:06:36.579Z,2.60
2019-02-03T07:09:09.340Z,2.60
2019-02-03T07:11:39.188Z,2.50
2019-02-03T07:14:08.827Z,2.40
2019-02-03T07:16:40.916Z,2.40
2019-02-03T07:19:09.797Z,2.40
2019-02-03T07:21:39.780Z,2.40
2019-02-03T07:24:09.448Z,2.40
2019-02-03T07:26:39.000Z,2.30
2019-02-03T07:29:08.661Z,2.40
2019-02-03T07:31:38.221Z,2.30
2019-02-03T07:34:08.911Z,2.40
2019-02-03T07:36:38.538Z,2.30
2019-02-03T07:39:09.860Z,2.30
2019-02-03T07:41:39.527Z,2.30
2019-02-03T07:44:09.139Z,2.30
2019-02-03T07:46:38.882Z,2.40
2019-02-03T07:49:09.465Z,2.40
2019-02-03T07:51:39.266Z,2.40
2019-02-03T07:54:08.992Z,2.50
2019-02-03T07:56:38.650Z,2.40
2019-02-03T07:59:09.660Z,2.40
2019-02-03T08:01:40.320Z,2.40
2019-02-03T08:04:10.144Z,2.30
2019-02-03T08:06:39.800Z,2.30
2019-02-03T08:09:10.922Z,2.30
2019-02-03T08:11:40.543Z,2.20
2019-02-03T08:14:10.457Z,2.30
2019-02-03T08:16:40.046Z,2.30
2019-02-03T08:19:09.890Z,2.30
2019-02-03T08:21:39.740Z,2.30
2019-02-03T08:24:09.476Z,2.30
2019-02-03T08:26:40.178Z,2.30
2019-02-03T08:29:10.008Z,2.30
2019-02-03T08:31:39.729Z,2.40
2019-02-03T08:34:09.395Z,2.30
2019-02-03T08:36:39.102Z,2.40
2019-02-03T08:39:09.786Z,2.30
2019-02-03T08:41:39.524Z,2.40
2019-02-03T08:44:09.157Z,2.40
2019-02-03T08:46:38.815Z,2.40
2019-02-03T08:49:08.436Z,2.40
2019-02-03T08:51:39.420Z,2.40
2019-02-03T08:54:09.486Z,2.50
2019-02-03T08:56:39.456Z,2.50
2019-02-03T08:59:09.109Z,2.50
2019-02-03T09:01:38.719Z,2.60
2019-02-03T09:04:08.459Z,2.60
2019-02-03T09:06:38.949Z,2.50
2019-02-03T09:09:10.777Z,2.40
2019-02-03T09:11:40.376Z,2.40
2019-02-03T09:14:10.041Z,2.50
2019-02-03T09:16:39.667Z,2.60
2019-02-03T09:19:10.353Z,2.60
2019-02-03T09:21:39.981Z,2.60
2019-02-03T09:24:10.753Z,2.60
2019-02-03T09:26:40.403Z,2.50
2019-02-03T09:29:10.074Z,2.50
2019-02-03T09:31:40.056Z,2.50
2019-02-03T09:34:09.775Z,2.50
2019-02-03T09:36:39.439Z,2.50
2019-02-03T09:39:12.872Z,2.40
2019-02-03T09:41:42.614Z,2.40
2019-02-03T09:44:12.329Z,2.50
2019-02-03T09:46:42.559Z,2.50
2019-02-03T09:49:12.157Z,2.50
2019-02-03T09:51:41.733Z,2.40
2019-02-03T09:54:11.421Z,2.40
2019-02-03T09:56:42.150Z,2.50
2019-02-03T09:59:12.087Z,2.50
2019-02-03T10:01:42.895Z,2.50
2019-02-03T10:04:12.549Z,2.50
2019-02-03T10:06:42.253Z,2.60
2019-02-03T10:09:12.400Z,2.60
2019-02-03T10:11:42.014Z,2.50
2019-02-03T10:14:11.792Z,2.40
2019-02-03T10:16:41.401Z,2.40
2019-02-03T10:19:11.104Z,2.40
2019-02-03T10:21:40.765Z,2.40
2019-02-03T10:24:10.490Z,2.30
2019-02-03T10:26:41.323Z,2.30
2019-02-03T10:29:11.064Z,2.40
2019-02-03T10:31:40.864Z,2.50
2019-02-03T10:34:10.639Z,2.60
2019-02-03T10:36:40.429Z,2.60
2019-02-03T10:39:10.951Z,2.80
2019-02-03T10:41:40.694Z,2.80
2019-02-03T10:44:10.519Z,2.80
2019-02-03T10:46:40.210Z,2.90
2019-02-03T10:49:09.805Z,2.90
2019-02-03T10:51:39.459Z,2.90
2019-02-03T10:54:10.241Z,3.00
2019-02-03T10:56:40.003Z,3.00
2019-02-03T10:59:09.635Z,3.00
2019-02-03T11:01:39.512Z,3.00
2019-02-03T11:04:09.221Z,3.10
2019-02-03T11:06:38.946Z,3.00
2019-02-03T11:09:10.548Z,3.00
2019-02-03T11:11:40.150Z,2.90
2019-02-03T11:14:10.319Z,2.90
2019-02-03T11:16:40.774Z,2.80
2019-02-03T11:19:10.496Z,2.70
2019-02-03T11:21:40.435Z,2.70
2019-02-03T11:24:10.147Z,2.60
2019-02-03T11:26:39.735Z,2.50
2019-02-03T11:29:09.392Z,2.50
2019-02-03T11:31:39.056Z,2.60
2019-02-03T11:34:08.723Z,2.60
2019-02-03T11:36:38.366Z,2.60
2019-02-03T11:39:09.338Z,2.60
2019-02-03T11:41:48.670Z,2.70
2019-02-03T11:44:10.503Z,2.70
2019-02-03T11:46:40.355Z,2.60
2019-02-03T11:49:10.257Z,2.50
2019-02-03T11:51:40.291Z,2.50
2019-02-03T11:54:10.190Z,2.40
2019-02-03T11:56:41.192Z,2.40
2019-02-03T11:59:10.955Z,2.30
2019-02-03T12:01:40.810Z,2.40
2019-02-03T12:04:10.881Z,2.40
2019-02-03T12:06:40.735Z,2.30
2019-02-03T12:09:10.917Z,2.30
2019-02-03T12:11:41.794Z,2.30
2019-02-03T12:14:11.575Z,2.10
2019-02-03T12:16:41.429Z,2.20
2019-02-03T12:19:11.131Z,2.10
2019-02-03T12:21:41.038Z,2.10
2019-02-03T12:24:10.657Z,2.10
2019-02-03T12:26:40.390Z,2.00
2019-02-03T12:29:11.125Z,2.10
2019-02-03T12:31:40.968Z,2.10
2019-02-03T12:34:11.955Z,2.00
2019-02-03T12:36:41.798Z,2.00
2019-02-03T12:39:11.750Z,1.90
2019-02-03T12:41:41.550Z,2.00
2019-02-03T12:44:11.426Z,2.00
2019-02-03T12:46:41.180Z,2.00
2019-02-03T12:49:10.986Z,1.90
2019-02-03T12:51:40.835Z,2.00
2019-02-03T12:54:10.622Z,1.90
2019-02-03T12:56:40.541Z,2.00
2019-02-03T12:59:10.337Z,2.10
2019-02-03T13:01:40.288Z,2.20
2019-02-03T13:04:10.072Z,2.20
2019-02-03T13:06:40.001Z,2.30
2019-02-03T13:09:12.046Z,2.30
2019-02-03T13:11:43.903Z,2.30
2019-02-03T13:14:13.730Z,2.30
2019-02-03T13:16:43.606Z,2.30
2019-02-03T13:19:15.653Z,2.20
2019-02-03T13:21:45.097Z,2.20
2019-02-03T13:24:14.864Z,2.30
2019-02-03T13:26:44.622Z,2.20
2019-02-03T13:29:14.575Z,2.10
2019-02-03T13:31:44.486Z,2.20
2019-02-03T13:34:14.691Z,2.20
2019-02-03T13:42:02.557Z,2.30
2019-02-03T13:44:32.539Z,2.30
2019-02-03T13:47:02.197Z,2.30
2019-02-03T13:49:31.988Z,2.30
2019-02-03T13:52:01.613Z,2.20
2019-02-03T13:54:31.283Z,2.10
2019-02-03T13:57:01.175Z,2.00
2019-02-03T13:59:30.912Z,2.10
2019-02-03T14:02:00.497Z,2.10
2019-02-03T14:04:30.172Z,2.10
2019-02-03T14:06:59.884Z,2.10
2019-02-03T14:09:29.789Z,2.00
2019-02-03T14:11:59.404Z,1.90
2019-02-03T14:14:29.123Z,1.90
2019-02-03T14:16:58.723Z,1.90
2019-02-03T14:19:28.441Z,1.80
2019-02-03T14:21:57.980Z,1.80
2019-02-03T14:24:27.701Z,1.80
2019-02-03T14:26:58.319Z,1.80
2019-02-03T14:29:28.007Z,1.70
2019-02-03T14:31:57.581Z,1.70
2019-02-03T14:34:27.317Z,1.80
2019-02-03T14:36:57.153Z,1.70
2019-02-03T14:39:26.863Z,1.70
2019-02-03T14:41:56.479Z,1.70
2019-02-03T14:44:26.260Z,1.80
2019-02-03T14:46:55.889Z,1.80
2019-02-03T14:49:25.735Z,1.80
2019-02-03T14:51:55.363Z,1.70
2019-02-03T14:54:25.109Z,1.60
2019-02-03T14:56:54.875Z,1.60
2019-02-03T14:59:24.534Z,1.60
2019-02-03T15:01:54.098Z,1.60
2019-02-03T15:04:23.867Z,1.60
2019-02-03T15:06:53.377Z,1.50
2019-02-03T15:09:24.124Z,1.50
2019-02-03T15:11:53.753Z,1.40
2019-02-03T15:14:23.456Z,1.50
2019-02-03T15:16:53.113Z,1.60
2019-02-03T15:19:22.890Z,1.60
2019-02-03T15:21:52.495Z,1.60
2019-02-03T15:24:22.149Z,1.70
2019-02-03T15:26:51.817Z,1.60
2019-02-03T15:29:21.647Z,1.60
2019-02-03T15:31:51.328Z,1.60
2019-02-03T15:34:21.296Z,1.80
2019-02-03T15:36:51.108Z,1.70
2019-02-03T15:39:20.889Z,1.70
2019-02-03T15:41:50.896Z,1.60
2019-02-03T15:44:20.508Z,1.60
2019-02-03T15:46:50.130Z,1.50
2019-02-03T15:49:19.773Z,1.50
2019-02-03T15:51:49.478Z,1.50
2019-02-03T15:54:19.044Z,1.40
2019-02-03T15:56:48.745Z,1.30
2019-02-03T15:59:18.361Z,1.20
2019-02-03T16:01:49.163Z,1.20
2019-02-03T16:04:18.884Z,1.20
2019-02-03T16:06:48.599Z,1.30
2019-02-03T16:09:18.684Z,1.30
2019-02-03T16:11:48.270Z,1.30
2019-02-03T16:14:18.060Z,1.50
2019-02-03T16:16:47.617Z,1.50
2019-02-03T16:19:17.493Z,1.60
2019-02-03T16:21:47.021Z,1.50
2019-02-03T16:24:16.720Z,1.60
2019-02-03T16:26:46.341Z,1.60
2019-02-03T16:29:16.061Z,1.70
2019-02-03T16:31:45.673Z,1.70
2019-02-03T16:34:15.573Z,1.60
2019-02-03T16:36:45.150Z,1.70
2019-02-03T16:39:14.960Z,1.70
2019-02-03T16:41:44.472Z,1.70
2019-02-03T16:44:15.373Z,1.70
2019-02-03T16:46:45.080Z,1.50
2019-02-03T16:49:16.711Z,1.30
2019-02-03T16:51:48.171Z,1.30
2019-02-03T16:54:18.454Z,1.30
2019-02-03T16:56:48.408Z,1.30
2019-02-03T16:59:17.964Z,1.40
2019-02-03T17:01:47.609Z,1.40
2019-02-03T17:04:17.506Z,1.40
2019-02-03T17:06:47.686Z,1.40
2019-02-03T17:09:17.597Z,1.40
2019-02-03T17:11:47.393Z,1.40
2019-02-03T17:14:17.153Z,1.40
2019-02-03T17:16:47.081Z,1.40
2019-02-03T17:19:16.663Z,1.50
2019-02-03T17:21:46.454Z,1.60
2019-02-03T17:24:16.169Z,1.60
2019-02-03T17:26:45.915Z,1.60
2019-02-03T17:29:15.574Z,1.60
2019-02-03T17:31:45.205Z,1.60
2019-02-03T17:34:14.889Z,1.50
2019-02-03T17:36:48.299Z,1.40
2019-02-03T17:39:20.688Z,1.50
2019-02-03T17:41:50.383Z,1.60
2019-02-03T17:44:20.387Z,1.50
2019-02-03T17:46:50.204Z,1.50
2019-02-03T17:49:19.793Z,1.50
2019-02-03T17:51:49.401Z,1.40
2019-02-03T17:54:19.072Z,1.50
2019-02-03T17:56:48.973Z,1.50
2019-02-03T17:59:18.657Z,1.50
2019-02-03T18:01:48.296Z,1.50
2019-02-03T18:04:17.968Z,1.60
2019-02-03T18:06:47.544Z,1.50
2019-02-03T18:09:17.391Z,1.50
2019-02-03T18:11:46.976Z,1.50
2019-02-03T18:14:24.173Z,1.50
2019-02-03T18:16:48.297Z,1.60
2019-02-03T18:19:18.023Z,1.60
2019-02-03T18:21:48.571Z,1.70
2019-02-03T18:24:18.476Z,1.80
2019-02-03T18:26:48.192Z,1.70
2019-02-03T18:29:17.808Z,1.70
2019-02-03T18:31:47.549Z,1.70
2019-02-03T18:34:17.221Z,1.80
2019-02-03T18:36:47.449Z,1.80
2019-02-03T18:39:17.104Z,1.70
2019-02-03T18:41:46.742Z,1.80
2019-02-03T18:44:17.400Z,1.80
2019-02-03T18:46:47.124Z,1.80
2019-02-03T18:49:16.701Z,1.80
2019-02-03T18:51:47.011Z,1.80
2019-02-03T18:54:17.172Z,1.90
2019-02-03T18:56:46.874Z,1.90
2019-02-03T18:59:16.554Z,1.90
2019-02-03T19:01:46.336Z,1.90
2019-02-03T19:04:17.854Z,1.80
2019-02-03T19:06:47.627Z,1.80
2019-02-03T19:09:17.432Z,1.90
2019-02-03T19:11:47.006Z,1.80
2019-02-03T19:14:16.687Z,1.80
2019-02-03T19:16:46.236Z,1.90
2019-02-03T19:19:15.966Z,1.80
2019-02-03T19:21:45.547Z,1.90
2019-02-03T19:24:15.607Z,1.80
2019-02-03T19:26:45.200Z,1.90
2019-02-03T19:29:15.112Z,1.80
2019-02-03T19:31:46.032Z,1.80
2019-02-03T19:34:15.854Z,1.90
2019-02-03T19:36:45.468Z,1.90
2019-02-03T19:39:15.104Z,1.90
2019-02-03T19:41:44.692Z,1.90
2019-02-03T19:44:14.605Z,1.90
2019-02-03T19:46:44.148Z,1.90
2019-02-03T19:49:16.469Z,1.90
2019-02-03T19:51:46.141Z,1.90
2019-02-03T19:54:16.851Z,1.90
2019-02-03T19:56:46.392Z,1.90
2019-02-03T19:59:16.164Z,2.00
2019-02-03T20:01:45.748Z,1.90
2019-02-03T20:04:15.508Z,2.00
2019-02-03T20:06:45.061Z,1.90
2019-02-03T20:09:15.050Z,2.10
2019-02-03T20:11:44.883Z,2.00
2019-02-03T20:14:14.975Z,2.00
2019-02-03T20:16:44.591Z,1.90
2019-02-03T20:19:14.396Z,1.90
2019-02-03T20:21:43.922Z,2.00
2019-02-03T20:24:14.510Z,2.00
2019-02-03T20:26:44.142Z,2.00
2019-02-03T20:29:14.881Z,2.00
2019-02-03T20:31:44.385Z,2.00
2019-02-03T20:34:14.352Z,2.00
2019-02-03T20:36:44.150Z,2.00
2019-02-03T20:39:14.071Z,1.80
2019-02-03T20:41:43.764Z,1.80
2019-02-03T20:44:13.392Z,1.80
2019-02-03T20:46:43.360Z,1.90
2019-02-03T20:49:12.980Z,1.80
2019-02-03T20:51:42.660Z,2.00
2019-02-03T20:54:12.316Z,2.00
2019-02-03T20:56:42.052Z,2.00
2019-02-03T20:59:11.888Z,2.00
2019-02-03T21:01:41.533Z,2.00
2019-02-03T21:04:11.393Z,2.00
2019-02-03T21:06:41.405Z,2.00
2019-02-03T21:09:11.374Z,2.00
2019-02-03T21:11:41.079Z,2.00
2019-02-03T21:14:10.728Z,1.90
2019-02-03T21:16:40.659Z,2.00
2019-02-03T21:19:10.363Z,2.00
2019-02-03T21:21:39.901Z,2.00
2019-02-03T21:24:09.959Z,2.00
2019-02-03T21:26:39.503Z,2.00
2019-02-03T21:29:09.147Z,1.90
2019-02-03T21:31:38.708Z,1.90
2019-02-03T21:34:08.558Z,2.10
2019-02-03T21:36:38.143Z,2.00
2019-02-03T21:39:09.579Z,2.00
2019-02-03T21:41:39.165Z,1.90
2019-02-03T21:44:08.784Z,1.90
2019-02-03T21:46:38.363Z,1.90
2019-02-03T21:49:08.053Z,1.90
2019-02-03T21:51:38.067Z,2.00
2019-02-03T21:54:08.776Z,1.90
2019-02-03T21:56:38.340Z,1.90
2019-02-03T21:59:07.980Z,1.90
2019-02-03T22:01:37.765Z,2.00
2019-02-03T22:04:07.314Z,1.90
2019-02-03T22:06:37.091Z,1.90
2019-02-03T22:09:08.787Z,1.90
2019-02-03T22:11:38.461Z,1.90
2019-02-03T22:14:08.460Z,1.90
2019-02-03T22:16:38.167Z,1.90
2019-02-03T22:19:08.747Z,1.90
2019-02-03T22:21:38.674Z,1.80
2019-02-03T22:24:08.306Z,1.80
2019-02-03T22:26:38.062Z,1.80
2019-02-03T22:29:07.761Z,1.80
2019-02-03T22:31:37.345Z,1.90
2019-02-03T22:34:07.077Z,1.80
2019-02-03T22:36:36.783Z,1.80
2019-02-03T22:39:08.789Z,1.80
2019-02-03T22:41:38.357Z,1.80
2019-02-03T22:44:08.003Z,1.80
2019-02-03T22:46:37.584Z,1.80
2019-02-03T22:49:07.638Z,1.90
2019-02-03T22:51:37.164Z,1.80
2019-02-03T22:54:07.160Z,1.90
2019-02-03T22:56:36.672Z,2.00
2019-02-03T22:59:06.831Z,1.90
2019-02-03T23:01:38.050Z,1.90
2019-02-03T23:04:22.704Z,1.90
2019-02-03T23:06:52.332Z,1.80
2019-02-03T23:09:34.312Z,1.80
2019-02-03T23:12:06.376Z,2.00
2019-02-03T23:14:36.078Z,2.00
2019-02-03T23:17:06.280Z,2.10
2019-02-03T23:19:35.960Z,2.00
2019-02-03T23:22:05.668Z,2.00
2019-02-03T23:24:35.215Z,2.00
2019-02-03T23:27:05.035Z,2.00
2019-02-03T23:29:34.891Z,2.10
2019-02-03T23:32:04.666Z,2.10
2019-02-03T23:34:34.206Z,2.10
2019-02-03T23:37:03.844Z,2.10
2019-02-03T23:39:33.455Z,2.10
2019-02-03T23:42:03.114Z,2.10
2019-02-03T23:44:32.670Z,2.10
2019-02-03T23:47:02.215Z,2.10
2019-02-03T23:49:31.936Z,2.10
2019-02-03T23:52:01.478Z,2.10
2019-02-03T23:54:31.135Z,2.20
2019-02-03T23:57:01.481Z,2.10
2019-02-03T23:59:31.192Z,2.10
